Time;durP1;ratioP1;P1;durP2;ratioP2;P2;SDS_P1;SDS_P2;PMS_P1;PMS_P2;Temp;Humidity;BMP_temperature;BMP_pressure;BME280_temperature;BME280_humidity;BME280_pressure;Samples;Min_cycle;Max_cycle;Signal;HPM_P1;HPM_P2
2022/01/12 00:02:02;;;;;;;49.17;18.70;;;3.30;99.90;;;;;;6187311;23;20012;-82
2022/01/12 00:04:28;;;;;;;50.42;19.48;;;3.30;99.90;;;;;;6212105;23;20407;-82
2022/01/12 00:06:54;;;;;;;55.72;20.73;;;3.30;99.90;;;;;;6186082;23;20032;-82
2022/01/12 00:09:19;;;;;;;59.08;21.35;;;3.30;99.90;;;;;;6186122;23;20301;-82
2022/01/12 00:11:45;;;;;;;65.65;22.15;;;3.30;99.90;;;;;;6187481;23;20020;-82
2022/01/12 00:14:11;;;;;;;63.15;23.40;;;3.30;99.90;;;;;;6186746;23;20074;-82
2022/01/12 00:16:38;;;;;;;61.15;21.52;;;3.30;99.90;;;;;;6161715;23;20426;-82
2022/01/12 00:19:04;;;;;;;61.25;20.42;;;3.30;99.90;;;;;;6161952;23;20351;-82
2022/01/12 00:21:30;;;;;;;51.63;19.80;;;3.30;99.90;;;;;;6186222;23;20039;-82
2022/01/12 00:23:55;;;;;;;69.25;22.48;;;3.30;99.90;;;;;;6186402;23;20024;-82
2022/01/12 00:33:06;;;;;;;69.32;21.83;;;3.30;99.90;;;;;;6187411;23;20052;-82
2022/01/12 00:34:37;;;;;;;60.78;21.63;;;3.40;99.90;;;;;;6186759;23;20012;-82
2022/01/12 00:37:03;;;;;;;59.78;21.52;;;3.40;99.90;;;;;;6186793;23;20458;-82
2022/01/12 00:39:29;;;;;;;55.70;19.25;;;3.40;99.90;;;;;;6211442;23;20023;-82
2022/01/12 00:41:55;;;;;;;66.32;22.25;;;3.40;99.90;;;;;;6187510;23;20044;-82
2022/01/12 00:44:24;;;;;;;60.03;22.38;;;3.40;99.90;;;;;;6187198;23;20021;-82
2022/01/12 00:46:53;;;;;;;72.10;23.08;;;3.40;99.90;;;;;;6186350;23;20013;-82
2022/01/12 00:49:19;;;;;;;53.85;19.48;;;3.40;99.90;;;;;;6161704;23;20032;-82
2022/01/12 00:51:47;;;;;;;56.92;19.88;;;3.40;99.90;;;;;;6186636;23;20008;-82
2022/01/12 00:54:13;;;;;;;63.13;22.48;;;3.50;99.90;;;;;;6210539;23;20352;-82
2022/01/12 00:56:38;;;;;;;45.90;18.13;;;3.40;99.90;;;;;;6186993;23;20048;-82
2022/01/12 00:59:04;;;;;;;51.58;18.10;;;3.40;99.90;;;;;;6187344;23;20374;-82
2022/01/12 01:01:30;;;;;;;46.88;16.98;;;3.40;99.90;;;;;;6186946;23;20016;-82
2022/01/12 01:03:56;;;;;;;63.90;21.05;;;3.40;99.90;;;;;;6187303;23;20016;-82
2022/01/12 01:06:22;;;;;;;55.78;19.23;;;3.40;99.90;;;;;;6186932;23;20065;-82
2022/01/12 01:08:51;;;;;;;64.85;20.60;;;3.50;99.90;;;;;;6186052;23;20542;-82
2022/01/12 01:11:18;;;;;;;66.55;21.27;;;3.50;99.90;;;;;;6212123;23;20539;-82
2022/01/12 01:13:55;;;;;;;60.10;20.70;;;3.50;99.90;;;;;;6187125;23;20016;-82
2022/01/12 01:16:31;;;;;;;64.63;20.17;;;3.50;99.90;;;;;;6187137;23;20108;-82
2022/01/12 01:27:22;;;;;;;84.10;22.70;;;3.50;99.90;;;;;;6187324;23;20335;-82
2022/01/12 01:29:49;;;;;;;95.38;23.83;;;3.50;99.90;;;;;;6187959;23;20095;-82
2022/01/12 01:32:14;;;;;;;89.70;22.67;;;3.40;99.90;;;;;;6186607;23;20055;-82
2022/01/12 01:34:45;;;;;;;87.05;24.58;;;3.40;99.90;;;;;;6187542;23;20013;-82
2022/01/12 01:37:11;;;;;;;94.43;23.42;;;3.40;99.90;;;;;;6188472;23;20013;-82
2022/01/12 01:39:37;;;;;;;71.93;21.33;;;3.50;99.90;;;;;;6213300;23;20541;-82
2022/01/12 01:42:12;;;;;;;81.35;22.15;;;3.50;99.90;;;;;;6189097;23;20036;-82
2022/01/12 01:55:28;;;;;;;95.07;24.80;;;3.40;99.90;;;;;;6187762;23;20025;-82
2022/01/12 01:57:54;;;;;;;90.97;23.42;;;3.40;99.90;;;;;;6188650;23;20056;-82
2022/01/12 02:00:23;;;;;;;88.30;23.40;;;3.50;99.90;;;;;;6189442;23;20013;-82
2022/01/12 02:02:51;;;;;;;115.93;26.40;;;3.50;99.90;;;;;;6189301;23;20377;-82
2022/01/12 02:05:16;;;;;;;104.32;25.63;;;3.50;99.90;;;;;;6187330;23;20038;-82
2022/01/12 02:07:43;;;;;;;124.82;27.00;;;3.50;99.90;;;;;;6163863;23;20052;-82
2022/01/12 02:10:09;;;;;;;135.75;26.23;;;3.40;99.90;;;;;;6188034;23;20013;-83
2022/01/12 02:12:35;;;;;;;136.48;26.73;;;3.50;99.90;;;;;;6188442;23;20016;-82
2022/01/12 02:15:01;;;;;;;114.82;26.08;;;3.50;99.90;;;;;;6163164;23;20451;-82
2022/01/12 02:17:39;;;;;;;109.45;25.23;;;3.50;99.90;;;;;;6189233;23;20019;-82
2022/01/12 02:36:27;;;;;;;156.75;27.25;;;3.50;99.90;;;;;;6187047;23;20020;-82
2022/01/12 02:41:39;;;;;;;121.32;24.70;;;3.50;99.90;;;;;;6212000;23;20021;-82
2022/01/12 02:54:50;;;;;;;204.32;28.02;;;3.60;99.90;;;;;;6185624;23;20020;-82
2022/01/12 02:57:17;;;;;;;226.55;32.67;;;3.60;99.90;;;;;;6187104;23;20043;-82
2022/01/12 03:00:07;;;;;;;151.40;28.55;;;3.60;99.90;;;;;;6187002;23;20016;-82
2022/01/12 03:02:39;;;;;;;170.02;27.83;;;3.60;99.90;;;;;;6186458;23;20398;-82
2022/01/12 03:07:45;;;;;;;219.90;31.20;;;3.60;99.90;;;;;;6187425;23;20115;-82
2022/01/12 03:10:12;;;;;;;194.45;28.35;;;3.70;99.90;;;;;;6185827;23;20388;-82
2022/01/12 03:12:42;;;;;;;126.95;25.02;;;3.70;99.90;;;;;;6187071;23;20040;-82
2022/01/12 03:15:08;;;;;;;117.88;24.20;;;3.70;99.90;;;;;;6187070;23;20037;-82
2022/01/12 03:17:34;;;;;;;156.57;26.23;;;3.70;99.90;;;;;;6186814;23;20036;-82
2022/01/12 03:20:00;;;;;;;121.07;23.85;;;3.60;99.90;;;;;;6187239;23;20433;-83
2022/01/12 03:22:26;;;;;;;337.75;37.45;;;3.70;99.90;;;;;;6187027;23;20021;-81
2022/01/12 03:24:51;;;;;;;173.68;28.25;;;3.70;99.90;;;;;;6186285;23;20320;-82
2022/01/12 03:27:17;;;;;;;354.33;40.42;;;3.70;99.90;;;;;;6187610;23;20131;-82
2022/01/12 03:29:44;;;;;;;131.75;22.50;;;3.60;99.90;;;;;;6187877;23;20016;-82
2022/01/12 03:32:12;;;;;;;88.60;19.33;;;3.70;99.90;;;;;;6186220;23;20087;-82
2022/01/12 03:34:41;;;;;;;280.90;38.00;;;3.70;99.90;;;;;;6186746;23;20051;-82
2022/01/12 03:39:51;;;;;;;247.02;33.97;;;3.70;99.90;;;;;;6185904;23;20478;-82
2022/01/12 03:42:19;;;;;;;275.45;34.20;;;3.70;99.90;;;;;;6186482;23;20066;-82
2022/01/12 03:44:45;;;;;;;241.45;32.38;;;3.70;99.90;;;;;;6186826;23;20020;-82
2022/01/12 03:47:10;;;;;;;227.75;29.60;;;3.70;99.90;;;;;;6187290;23;20024;-82
2022/01/12 03:49:36;;;;;;;426.23;43.40;;;3.70;99.90;;;;;;6186628;23;20020;-83
2022/01/12 03:52:02;;;;;;;325.10;37.50;;;3.70;99.90;;;;;;6187312;23;20083;-82
2022/01/12 03:54:28;;;;;;;312.42;35.30;;;3.70;99.90;;;;;;6186164;23;20044;-82
2022/01/12 03:56:54;;;;;;;429.73;45.17;;;3.60;99.90;;;;;;6187759;23;20245;-82
2022/01/12 03:59:19;;;;;;;259.90;33.97;;;3.70;99.90;;;;;;6187200;23;20017;-82
2022/01/12 04:01:45;;;;;;;333.40;39.90;;;3.70;99.90;;;;;;6187301;23;20013;-82
2022/01/12 04:04:18;;;;;;;184.77;26.23;;;3.70;99.90;;;;;;6185203;23;20017;-82
2022/01/12 04:09:28;;;;;;;211.18;28.55;;;3.70;99.90;;;;;;6185535;23;20012;-82
2022/01/12 04:11:53;;;;;;;185.15;23.60;;;3.70;99.90;;;;;;6186996;23;20015;-82
2022/01/12 04:14:19;;;;;;;222.90;30.45;;;3.70;99.90;;;;;;6186338;23;20016;-82
2022/01/12 04:16:45;;;;;;;223.75;30.08;;;3.70;99.90;;;;;;6188009;23;20013;-81
2022/01/12 04:19:11;;;;;;;229.30;30.10;;;3.70;99.90;;;;;;6186835;23;20016;-82
2022/01/12 04:21:42;;;;;;;302.80;34.33;;;3.70;99.90;;;;;;6187037;23;20736;-82
2022/01/12 04:24:09;;;;;;;135.77;25.57;;;3.70;99.90;;;;;;6185206;23;20013;-82
2022/01/12 04:26:34;;;;;;;99.45;20.38;;;3.70;99.90;;;;;;6186621;23;20729;-82
2022/01/12 04:29:00;;;;;;;104.55;20.77;;;3.70;99.90;;;;;;6162918;23;20035;-82
2022/01/12 04:31:26;;;;;;;113.68;19.25;;;3.70;99.90;;;;;;6186730;23;20040;-82
2022/01/12 04:33:52;;;;;;;204.95;28.38;;;3.70;99.90;;;;;;6162540;23;20327;-82
2022/01/12 04:36:17;;;;;;;190.07;29.00;;;3.70;99.90;;;;;;6212374;23;20047;-82
2022/01/12 04:38:44;;;;;;;123.55;22.33;;;3.70;99.90;;;;;;6210924;23;20350;-82
2022/01/12 04:41:11;;;;;;;115.57;24.30;;;3.70;99.90;;;;;;6185528;23;20048;-82
2022/01/12 04:43:39;;;;;;;120.40;21.13;;;3.70;99.90;;;;;;6187028;23;20024;-82
2022/01/12 04:48:37;;;;;;;120.30;20.67;;;3.70;99.90;;;;;;6186203;23;20100;-82
2022/01/12 04:51:03;;;;;;;110.33;22.73;;;3.80;99.90;;;;;;6186771;23;20008;-82
2022/01/12 04:53:30;;;;;;;71.43;18.25;;;3.80;99.90;;;;;;6185140;23;20012;-82
2022/01/12 04:55:57;;;;;;;127.50;25.00;;;3.80;99.90;;;;;;6185353;23;20036;-82
2022/01/12 04:58:23;;;;;;;106.60;20.55;;;3.70;99.90;;;;;;6186621;23;20020;-82
2022/01/12 05:00:51;;;;;;;61.25;18.20;;;3.80;99.90;;;;;;6162045;23;20486;-82
2022/01/12 05:13:56;;;;;;;68.25;17.75;;;3.80;99.90;;;;;;6188139;23;20024;-82
2022/01/12 05:16:23;;;;;;;66.57;16.08;;;3.80;99.90;;;;;;6214343;23;20024;-82
2022/01/12 05:18:50;;;;;;;64.85;19.00;;;3.80;99.90;;;;;;6213206;23;20043;-82
2022/01/12 05:21:18;;;;;;;103.22;21.67;;;3.80;99.90;;;;;;6188293;23;20025;-82
2022/01/12 05:23:44;;;;;;;73.32;18.33;;;3.80;99.90;;;;;;6186609;23;20062;-82
2022/01/12 05:26:10;;;;;;;65.75;16.63;;;3.80;99.90;;;;;;6188821;23;20016;-83
2022/01/12 05:28:38;;;;;;;102.05;21.45;;;3.80;99.90;;;;;;6187810;23;20012;-82
2022/01/12 05:31:04;;;;;;;89.05;20.25;;;3.80;99.90;;;;;;6188656;23;20020;-82
2022/01/12 05:33:30;;;;;;;64.70;15.85;;;3.80;99.90;;;;;;6188096;23;20390;-82
2022/01/12 05:35:57;;;;;;;59.42;14.98;;;3.80;99.90;;;;;;6188160;23;20475;-82
2022/01/12 05:38:25;;;;;;;56.38;16.30;;;3.80;99.90;;;;;;6187784;23;20443;-82
2022/01/12 05:40:53;;;;;;;67.30;17.33;;;3.80;99.90;;;;;;6162984;23;20027;-82
2022/01/12 05:43:28;;;;;;;80.45;19.33;;;3.80;99.90;;;;;;6188065;23;20000;-82
2022/01/12 05:45:57;;;;;;;63.20;16.83;;;3.80;99.90;;;;;;6188585;23;20048;-82
2022/01/12 05:51:07;;;;;;;70.10;18.42;;;3.80;99.90;;;;;;6188579;23;20104;-82
2022/01/12 05:53:32;;;;;;;58.75;16.15;;;3.80;99.90;;;;;;6162383;23;20063;-82
2022/01/12 05:55:58;;;;;;;62.08;16.45;;;3.80;99.90;;;;;;6187915;23;20123;-82
2022/01/12 05:58:24;;;;;;;63.92;18.30;;;3.80;99.90;;;;;;6188099;23;20016;-82
2022/01/12 06:00:49;;;;;;;73.47;17.23;;;3.80;99.90;;;;;;6162658;23;20016;-82
2022/01/12 06:03:15;;;;;;;63.22;15.70;;;3.80;99.90;;;;;;6212829;23;20026;-82
2022/01/12 06:05:41;;;;;;;50.97;13.50;;;3.80;99.90;;;;;;6187307;23;20334;-82
2022/01/12 06:08:06;;;;;;;42.67;13.02;;;3.80;99.90;;;;;;6187139;23;20031;-82
2022/01/12 06:10:32;;;;;;;68.95;17.08;;;3.80;99.90;;;;;;6187755;23;20087;-82
2022/01/12 06:12:57;;;;;;;48.78;13.63;;;3.80;99.90;;;;;;6187505;23;20016;-82
2022/01/12 06:15:24;;;;;;;53.38;14.10;;;3.80;99.90;;;;;;6187555;23;20015;-82
2022/01/12 06:17:49;;;;;;;52.92;14.55;;;3.80;99.90;;;;;;6188568;23;20015;-82
2022/01/12 06:20:15;;;;;;;54.83;16.95;;;3.80;99.90;;;;;;6187384;23;20008;-82
2022/01/12 06:22:41;;;;;;;60.60;15.93;;;3.80;99.90;;;;;;6186534;23;20034;-82
2022/01/12 06:25:12;;;;;;;49.63;14.43;;;3.80;99.90;;;;;;6186119;23;20016;-83
2022/01/12 06:27:37;;;;;;;48.20;13.98;;;3.80;99.90;;;;;;6187851;23;20028;-82
2022/01/12 06:31:10;;;;;;;43.00;13.75;;;3.80;99.90;;;;;;6186457;23;20001;-82
2022/01/12 06:32:49;;;;;;;45.85;12.43;;;3.80;99.90;;;;;;6187924;23;20062;-82
2022/01/12 06:35:15;;;;;;;43.58;13.07;;;3.80;99.90;;;;;;6186363;23;20063;-82
2022/01/12 06:37:40;;;;;;;52.50;14.90;;;3.70;99.90;;;;;;6186945;23;20335;-82
2022/01/12 06:40:07;;;;;;;51.35;14.48;;;3.70;99.90;;;;;;6161414;23;20170;-82
2022/01/12 06:42:32;;;;;;;51.13;14.88;;;3.60;99.90;;;;;;6187378;23;20027;-82
2022/01/12 06:44:58;;;;;;;56.53;15.13;;;3.50;99.90;;;;;;6187928;23;20064;-83
2022/01/12 06:47:24;;;;;;;46.83;11.70;;;3.40;99.90;;;;;;6211223;23;20514;-82
2022/01/12 06:49:49;;;;;;;45.25;13.85;;;3.40;99.90;;;;;;6185188;23;20017;-82
2022/01/12 06:52:15;;;;;;;49.25;13.82;;;3.30;99.90;;;;;;6186494;23;20336;-82
2022/01/12 06:54:40;;;;;;;48.03;13.65;;;3.20;99.90;;;;;;6185656;23;20016;-82
2022/01/12 06:57:06;;;;;;;43.97;12.02;;;3.10;99.90;;;;;;6161940;23;20020;-82
2022/01/12 06:59:32;;;;;;;46.42;13.60;;;3.10;99.90;;;;;;6210822;23;20012;-82
2022/01/12 07:01:58;;;;;;;48.65;12.13;;;3.10;99.90;;;;;;6187392;23;20087;-82
2022/01/12 07:04:24;;;;;;;37.88;12.05;;;3.10;99.90;;;;;;6186113;23;20095;-82
2022/01/12 07:06:50;;;;;;;40.22;12.55;;;3.00;99.90;;;;;;6186120;23;20439;-82
2022/01/12 07:09:16;;;;;;;36.92;10.68;;;3.00;99.90;;;;;;6160803;23;20038;-82
2022/01/12 07:11:42;;;;;;;33.58;10.90;;;2.90;99.90;;;;;;6210984;23;20013;-82
2022/01/12 07:14:08;;;;;;;46.22;12.57;;;2.80;99.90;;;;;;6184066;23;20478;-81
2022/01/12 07:16:33;;;;;;;45.63;11.75;;;2.80;99.90;;;;;;6184834;23;20028;-82
2022/01/12 07:18:59;;;;;;;47.25;12.43;;;2.70;99.90;;;;;;6158944;23;20327;-82
2022/01/12 07:21:29;;;;;;;60.20;14.07;;;2.70;99.90;;;;;;6187241;23;20012;-81
2022/01/12 07:23:56;;;;;;;38.40;11.02;;;2.60;99.90;;;;;;6187409;23;20017;-81
2022/01/12 07:26:22;;;;;;;42.63;10.05;;;2.60;99.90;;;;;;6210960;23;20095;-82
2022/01/12 07:28:49;;;;;;;77.97;12.05;;;2.50;99.90;;;;;;6160967;23;20084;-82
2022/01/12 07:31:15;;;;;;;45.17;8.90;;;2.50;99.90;;;;;;6187015;23;20083;-82
2022/01/12 07:33:41;;;;;;;112.22;13.15;;;2.40;99.90;;;;;;6183822;23;20052;-81
2022/01/12 07:36:06;;;;;;;386.35;34.75;;;2.30;99.90;;;;;;6184557;23;20095;-82
2022/01/12 07:38:32;;;;;;;134.98;15.27;;;2.30;99.90;;;;;;6183995;23;20115;-82
2022/01/12 07:40:58;;;;;;;64.13;10.55;;;2.30;99.90;;;;;;6186840;23;20059;-82
2022/01/12 07:43:23;;;;;;;184.93;19.35;;;2.30;99.90;;;;;;6161487;23;20013;-82
2022/01/12 07:45:49;;;;;;;142.95;16.83;;;2.30;99.90;;;;;;6208770;23;20084;-81
2022/01/12 07:48:15;;;;;;;64.75;10.10;;;2.30;99.90;;;;;;6158522;23;20013;-81
2022/01/12 07:50:41;;;;;;;53.50;9.90;;;2.40;99.90;;;;;;6181152;23;20020;-82
2022/01/12 07:53:07;;;;;;;42.53;9.23;;;2.40;99.90;;;;;;6181561;23;20023;-81
2022/01/12 07:55:33;;;;;;;107.38;13.30;;;2.50;99.90;;;;;;6180197;23;20450;-81
2022/01/12 07:58:00;;;;;;;212.63;21.65;;;2.60;99.90;;;;;;6159340;23;20074;-82
2022/01/12 08:00:26;;;;;;;84.78;12.63;;;2.70;99.90;;;;;;6158674;23;20020;-81
2022/01/12 08:02:52;;;;;;;221.68;18.23;;;2.70;99.90;;;;;;6202068;23;20311;-82
2022/01/12 08:05:18;;;;;;;122.53;13.63;;;2.80;99.90;;;;;;6158431;23;20016;-81
2022/01/12 08:07:45;;;;;;;208.88;18.92;;;2.90;99.90;;;;;;6182604;23;20009;-81
2022/01/12 08:10:11;;;;;;;184.15;16.67;;;2.90;99.90;;;;;;6182258;23;20017;-81
2022/01/12 08:12:38;;;;;;;149.65;19.10;;;3.00;99.90;;;;;;6183553;23;20111;-82
2022/01/12 08:15:08;;;;;;;227.18;19.75;;;3.00;99.90;;;;;;6208376;23;20047;-81
2022/01/12 08:17:34;;;;;;;201.52;16.67;;;3.00;99.90;;;;;;6183659;23;20016;-82
2022/01/12 08:20:01;;;;;;;127.75;14.52;;;3.00;99.90;;;;;;6183484;23;20455;-81
2022/01/12 08:22:27;;;;;;;134.65;13.93;;;3.00;99.90;;;;;;6183248;23;20032;-81
2022/01/12 08:24:53;;;;;;;87.18;11.27;;;3.00;99.90;;;;;;6181761;23;20016;-80
2022/01/12 08:27:19;;;;;;;151.50;15.60;;;3.00;99.90;;;;;;6183321;23;20323;-81
2022/01/12 08:29:44;;;;;;;243.05;20.27;;;3.00;99.90;;;;;;6183350;23;20044;-81
2022/01/12 08:32:10;;;;;;;194.90;18.95;;;3.00;99.90;;;;;;6183587;23;20007;-81
2022/01/12 08:34:36;;;;;;;76.43;10.18;;;3.00;99.90;;;;;;6183215;23;20008;-81
2022/01/12 08:37:02;;;;;;;142.40;12.13;;;3.00;99.90;;;;;;6181720;23;20063;-81
2022/01/12 08:39:28;;;;;;;128.27;15.05;;;3.00;99.90;;;;;;6159308;23;20020;-81
2022/01/12 08:41:53;;;;;;;139.60;13.07;;;3.00;99.90;;;;;;6209293;23;20036;-81
2022/01/12 08:44:19;;;;;;;165.23;15.02;;;3.00;99.90;;;;;;6183978;23;20339;-82
2022/01/12 08:46:44;;;;;;;181.38;15.65;;;3.00;99.90;;;;;;6158562;23;20009;-81
2022/01/12 08:49:10;;;;;;;150.25;15.18;;;3.00;99.90;;;;;;6183994;23;20386;-81
2022/01/12 08:51:36;;;;;;;183.00;16.83;;;3.00;99.90;;;;;;6184358;23;20083;-82
2022/01/12 08:54:04;;;;;;;275.88;22.90;;;3.00;99.90;;;;;;6182215;23;20016;-81
2022/01/12 08:56:29;;;;;;;227.38;22.88;;;3.00;99.90;;;;;;6183158;23;20032;-81
2022/01/12 08:58:55;;;;;;;369.33;28.67;;;3.00;99.90;;;;;;6183221;23;20012;-81
2022/01/12 09:01:21;;;;;;;231.70;22.17;;;3.10;99.90;;;;;;6206769;23;20293;-81
2022/01/12 09:03:48;;;;;;;311.67;29.20;;;3.10;99.90;;;;;;6184008;23;20485;-81
2022/01/12 09:06:13;;;;;;;156.93;17.80;;;3.10;99.90;;;;;;6209086;23;20021;-81
2022/01/12 09:08:40;;;;;;;218.85;21.75;;;3.10;99.90;;;;;;6158231;23;20092;-81
2022/01/12 09:11:07;;;;;;;200.55;20.20;;;3.20;99.90;;;;;;6183904;23;20506;-81
2022/01/12 09:13:33;;;;;;;248.95;24.08;;;3.20;99.90;;;;;;6183473;23;20059;-81
2022/01/12 09:16:00;;;;;;;218.82;20.08;;;3.20;99.90;;;;;;6182258;23;20395;-81
2022/01/12 09:18:26;;;;;;;307.45;27.58;;;3.20;99.90;;;;;;6183717;23;20459;-81
2022/01/12 09:20:53;;;;;;;216.77;22.73;;;3.30;99.90;;;;;;6184253;23;20023;-81
2022/01/12 09:23:19;;;;;;;265.60;22.80;;;3.30;99.90;;;;;;6209311;23;20403;-82
2022/01/12 09:25:45;;;;;;;270.38;23.33;;;3.40;99.90;;;;;;6182974;23;20382;-81
2022/01/12 09:28:11;;;;;;;257.10;23.20;;;3.40;99.90;;;;;;6183832;23;20092;-81
2022/01/12 09:30:36;;;;;;;233.70;22.42;;;3.40;99.90;;;;;;6158958;23;20132;-82
2022/01/12 09:33:02;;;;;;;317.58;26.98;;;3.40;99.90;;;;;;6209528;23;20039;-82
2022/01/12 09:35:29;;;;;;;295.08;25.65;;;3.40;99.90;;;;;;6183232;23;20094;-81
2022/01/12 09:37:55;;;;;;;200.40;19.95;;;3.40;99.90;;;;;;6182325;23;20016;-82
2022/01/12 09:40:21;;;;;;;140.05;16.13;;;3.50;99.90;;;;;;6158482;23;20016;-82
2022/01/12 09:42:48;;;;;;;359.17;33.17;;;3.50;99.90;;;;;;6158545;23;20016;-81
2022/01/12 09:45:18;;;;;;;140.35;16.17;;;3.50;99.90;;;;;;6185018;23;20455;-81
2022/01/12 09:47:47;;;;;;;213.15;23.65;;;3.50;99.90;;;;;;6183535;23;20024;-81
2022/01/12 09:50:14;;;;;;;105.05;13.40;;;3.60;99.90;;;;;;6183699;23;20012;-81
2022/01/12 09:52:40;;;;;;;249.18;23.38;;;3.60;99.90;;;;;;6183701;23;20012;-81
2022/01/12 09:55:06;;;;;;;132.23;15.55;;;3.60;99.90;;;;;;6157844;23;20020;-81
2022/01/12 09:57:32;;;;;;;239.20;22.85;;;3.60;99.90;;;;;;6161396;23;20013;-81
2022/01/12 09:59:58;;;;;;;171.95;20.05;;;3.60;99.90;;;;;;6185862;23;20091;-81
2022/01/12 10:02:23;;;;;;;175.00;19.40;;;3.70;99.90;;;;;;6209934;23;20650;-81
2022/01/12 10:05:10;;;;;;;174.27;17.65;;;3.70;99.90;;;;;;6185081;23;20024;-81
2022/01/12 10:07:36;;;;;;;202.07;21.13;;;3.70;99.90;;;;;;6184292;23;20092;-81
2022/01/12 10:10:05;;;;;;;113.85;14.25;;;3.80;99.90;;;;;;6184863;23;20067;-81
2022/01/12 10:12:32;;;;;;;107.03;14.13;;;3.80;99.90;;;;;;6185093;23;20008;-81
2022/01/12 10:15:01;;;;;;;119.28;14.32;;;3.90;99.90;;;;;;6184977;23;20038;-81
2022/01/12 10:17:33;;;;;;;176.80;18.63;;;3.90;99.90;;;;;;6209969;23;20019;-81
2022/01/12 10:20:10;;;;;;;78.47;12.23;;;3.90;99.90;;;;;;6185759;23;20362;-81
2022/01/12 10:22:36;;;;;;;67.95;11.57;;;3.80;99.90;;;;;;6184936;23;20031;-81
2022/01/12 10:25:15;;;;;;;70.90;10.32;;;3.70;99.90;;;;;;6183202;23;20466;-81
2022/01/12 10:27:41;;;;;;;81.70;11.45;;;3.80;99.90;;;;;;6185382;23;20016;-81
2022/01/12 10:30:07;;;;;;;85.95;10.32;;;3.90;99.90;;;;;;6185280;23;20040;-81
2022/01/12 10:32:33;;;;;;;107.25;13.25;;;3.90;99.90;;;;;;6184551;23;20347;-81
2022/01/12 10:35:00;;;;;;;102.30;11.90;;;3.90;99.90;;;;;;6159807;23;20012;-82
2022/01/12 10:37:26;;;;;;;68.93;9.40;;;3.90;99.90;;;;;;6184763;23;20458;-81
2022/01/12 10:39:54;;;;;;;170.70;15.90;;;3.90;99.90;;;;;;6185231;23;20847;-81
2022/01/12 10:42:26;;;;;;;71.32;9.65;;;3.90;99.90;;;;;;6184788;23;20021;-81
2022/01/12 10:44:54;;;;;;;83.35;8.95;;;3.90;99.90;;;;;;6186162;23;20062;-82
2022/01/12 10:47:31;;;;;;;85.70;8.73;;;4.00;99.90;;;;;;6160916;23;20017;-82
2022/01/12 10:50:04;;;;;;;88.80;8.80;;;4.00;99.90;;;;;;6184766;23;20126;-82
2022/01/12 10:52:34;;;;;;;;;;;4.00;99.90;;;;;;6160368;23;20066;-82
2022/01/12 10:55:11;;;;;;;131.77;12.82;;;4.10;99.90;;;;;;6184163;23;19920;-82
2022/01/12 10:57:39;;;;;;;63.78;8.55;;;4.00;99.90;;;;;;6185157;23;20018;-82
2022/01/12 11:00:22;;;;;;;131.95;15.13;;;4.00;99.90;;;;;;6158472;23;20368;-82
2022/01/12 11:03:00;;;;;;;97.15;9.10;;;4.10;99.90;;;;;;6183763;23;20048;-82
2022/01/12 11:05:29;;;;;;;128.57;11.90;;;4.10;99.90;;;;;;6184674;23;20725;-82
2022/01/12 11:07:55;;;;;;;173.23;14.45;;;4.10;99.90;;;;;;6183564;23;20047;-82
2022/01/12 11:10:23;;;;;;;158.75;12.20;;;4.10;99.90;;;;;;6183527;23;20019;-82
2022/01/12 11:12:50;;;;;;;111.40;10.40;;;4.10;99.90;;;;;;6210036;23;20435;-81
2022/01/12 11:15:18;;;;;;;92.03;9.27;;;4.10;99.90;;;;;;6185388;23;20013;-81
2022/01/12 11:17:47;;;;;;;111.97;12.10;;;4.10;99.90;;;;;;6184714;23;20071;-81
2022/01/12 11:20:25;;;;;;;116.75;11.07;;;4.10;99.90;;;;;;6210830;23;20351;-82
2022/01/12 11:22:59;;;;;;;56.30;6.63;;;4.10;99.90;;;;;;6184294;23;20336;-81
2022/01/12 11:25:37;;;;;;;57.10;6.32;;;4.20;99.90;;;;;;6185153;23;20020;-82
2022/01/12 11:28:24;;;;;;;58.70;9.45;;;4.30;99.90;;;;;;6185747;23;20013;-82
2022/01/12 11:30:54;;;;;;;48.80;6.95;;;4.40;99.90;;;;;;6185771;23;20435;-81
2022/01/12 11:33:42;;;;;;;59.45;7.32;;;4.40;99.90;;;;;;6185952;23;20016;-83
2022/01/12 11:36:37;;;;;;;90.53;11.45;;;4.50;99.90;;;;;;6183576;23;20288;-82
2022/01/12 11:39:05;;;;;;;80.68;9.07;;;4.50;99.90;;;;;;6183541;23;20067;-82
2022/01/12 11:41:33;;;;;;;33.53;6.80;;;4.50;99.90;;;;;;6183992;23;20516;-82
2022/01/12 11:44:20;;;;;;;71.75;7.93;;;4.60;99.90;;;;;;6183089;23;20023;-82
2022/01/12 11:46:49;;;;;;;72.78;7.28;;;4.50;99.90;;;;;;6159787;23;20403;-82
2022/01/12 11:49:29;;;;;;;73.05;7.78;;;4.50;99.90;;;;;;6184527;23;20059;-82
2022/01/12 11:51:57;;;;;;;66.50;9.85;;;4.50;99.90;;;;;;6160698;23;20119;-83
2022/01/12 11:54:30;;;;;;;62.90;8.68;;;4.50;99.90;;;;;;6159501;23;20009;-82
2022/01/12 11:56:59;;;;;;;51.17;8.77;;;4.60;99.90;;;;;;6186570;23;20025;-82
2022/01/12 11:59:27;;;;;;;81.45;11.13;;;4.60;99.90;;;;;;6185507;23;20118;-82
2022/01/12 12:02:08;;;;;;;71.78;11.18;;;4.60;99.90;;;;;;6185028;23;20008;-82
2022/01/12 12:04:34;;;;;;;86.72;9.02;;;4.60;99.90;;;;;;6210943;23;20490;-82
2022/01/12 12:07:12;;;;;;;72.35;9.10;;;4.60;99.90;;;;;;6184433;23;20017;-82
2022/01/12 12:09:48;;;;;;;64.32;7.50;;;4.60;99.90;;;;;;6173756;23;20064;-82
2022/01/12 12:12:36;;;;;;;69.55;8.00;;;4.70;99.90;;;;;;6183739;23;20016;-82
2022/01/12 12:15:05;;;;;;;122.78;11.48;;;4.70;99.90;;;;;;6183102;23;20095;-82
2022/01/12 12:17:34;;;;;;;81.53;8.90;;;4.70;99.90;;;;;;6184464;23;20095;-82
2022/01/12 12:20:01;;;;;;;90.30;9.85;;;4.80;99.90;;;;;;6184489;23;20024;-82
2022/01/12 12:22:29;;;;;;;127.47;11.40;;;4.80;99.90;;;;;;6183931;23;20068;-83
2022/01/12 12:24:58;;;;;;;72.57;8.63;;;4.80;99.90;;;;;;6180966;23;20020;-83
2022/01/12 12:27:27;;;;;;;82.63;11.25;;;4.80;99.90;;;;;;6182640;23;20047;-82
2022/01/12 12:29:53;;;;;;;77.57;7.35;;;4.80;99.90;;;;;;6184119;23;20447;-82
2022/01/12 12:32:32;;;;;;;107.30;12.18;;;4.80;99.90;;;;;;6159354;23;20515;-82
2022/01/12 12:35:07;;;;;;;109.50;10.27;;;4.80;99.90;;;;;;6183192;23;20009;-82
2022/01/12 12:37:38;;;;;;;109.70;10.50;;;4.80;99.90;;;;;;6207937;23;20135;-82
2022/01/12 12:40:14;;;;;;;89.07;8.63;;;4.80;99.90;;;;;;6182272;23;20012;-83
2022/01/12 12:42:40;;;;;;;98.45;10.65;;;4.80;99.90;;;;;;6184203;23;20043;-82
2022/01/12 12:45:08;;;;;;;94.88;8.38;;;4.80;99.90;;;;;;6183332;23;20012;-82
2022/01/12 12:47:34;;;;;;;151.95;13.75;;;4.80;99.90;;;;;;6183713;23;20023;-82
2022/01/12 12:50:02;;;;;;;76.80;8.45;;;4.80;99.90;;;;;;6183637;23;20008;-82
2022/01/12 12:52:46;;;;;;;73.00;7.93;;;4.80;99.90;;;;;;6184106;23;20055;-82
2022/01/12 12:55:14;;;;;;;104.75;9.02;;;4.80;99.90;;;;;;6182733;23;20040;-82
2022/01/12 12:57:54;;;;;;;119.13;11.77;;;4.90;99.90;;;;;;6208991;23;20052;-82
2022/01/12 13:00:23;;;;;;;93.07;12.57;;;4.90;99.90;;;;;;6184321;23;20051;-82
2022/01/12 13:02:54;;;;;;;71.90;10.00;;;4.90;99.90;;;;;;6184144;23;20017;-81
2022/01/12 13:05:23;;;;;;;32.70;5.97;;;4.90;99.90;;;;;;6207485;23;20016;-82
2022/01/12 13:07:49;;;;;;;100.13;9.82;;;5.00;99.90;;;;;;6158269;23;20447;-82
2022/01/12 13:10:21;;;;;;;50.42;7.90;;;5.00;99.90;;;;;;6156989;23;20098;-82
2022/01/12 13:13:02;;;;;;;42.30;6.53;;;5.00;99.90;;;;;;6183626;23;20012;-82
2022/01/12 13:15:28;;;;;;;76.80;8.55;;;5.00;99.90;;;;;;6159206;23;20017;-82
2022/01/12 13:18:09;;;;;;;71.78;8.27;;;5.00;99.90;;;;;;6157956;23;20009;-82
2022/01/12 13:23:29;;;;;;;68.20;6.82;;;5.00;99.90;;;;;;6183408;23;20144;-82
2022/01/12 13:25:58;;;;;;;54.33;6.43;;;4.90;99.90;;;;;;6182991;23;20017;-82
2022/01/12 13:28:24;;;;;;;39.00;6.32;;;4.90;99.90;;;;;;6184729;23;20439;-82
2022/01/12 13:30:57;;;;;;;44.92;7.07;;;4.90;99.90;;;;;;6183998;23;20008;-82
2022/01/12 13:33:43;;;;;;;43.50;6.65;;;4.90;99.90;;;;;;6184770;23;20016;-82
2022/01/12 13:36:23;;;;;;;64.72;7.55;;;4.90;99.90;;;;;;6158896;23;20016;-82
2022/01/12 13:39:05;;;;;;;55.15;7.53;;;4.90;99.90;;;;;;6159210;23;20040;-81
2022/01/12 13:41:33;;;;;;;30.85;5.38;;;4.90;99.90;;;;;;6187006;23;20076;-82
2022/01/12 13:44:05;;;;;;;36.10;7.07;;;4.90;99.90;;;;;;6184884;23;20457;-82
2022/01/12 13:46:37;;;;;;;44.83;7.47;;;4.80;99.90;;;;;;6185518;23;20052;-82
2022/01/12 13:51:38;;;;;;;53.40;8.27;;;4.90;99.90;;;;;;6185335;23;20067;-82
2022/01/12 13:54:09;;;;;;;72.35;7.35;;;4.90;99.90;;;;;;6159584;23;20095;-82
2022/01/12 13:56:41;;;;;;;52.58;8.55;;;4.90;99.90;;;;;;6159886;23;20056;-82
2022/01/12 13:59:08;;;;;;;77.07;8.45;;;4.90;99.90;;;;;;6160010;23;20103;-82
2022/01/12 14:01:36;;;;;;;41.90;7.07;;;4.90;99.90;;;;;;6185844;23;20013;-82
2022/01/12 14:04:18;;;;;;;44.40;6.72;;;4.90;99.90;;;;;;6185490;23;20452;-82
2022/01/12 14:06:46;;;;;;;;;;;4.90;99.90;;;;;;6186486;23;20367;-82